Time;durP1;ratioP1;P1;durP2;ratioP2;P2;SDS_P1;SDS_P2;PMS_P1;PMS_P2;Temp;Humidity;BMP_temperature;BMP_pressure;BME280_temperature;BME280_humidity;BME280_pressure;Samples;Min_cycle;Max_cycle;Signal;HPM_P1;HPM_P2
2023/06/18 00:01:20;;;;;;;5.20;4.38;;;435.60;2355.20;;;;;;5068742;28;20024;-60
2023/06/18 00:03:46;;;;;;;7.50;4.60;;;435.60;2355.20;;;;;;5070410;28;20048;-62
2023/06/18 00:06:12;;;;;;;7.35;4.57;;;435.60;2355.20;;;;;;5072777;28;20028;-60
2023/06/18 00:08:38;;;;;;;7.80;5.15;;;435.60;2355.20;;;;;;5072105;28;20024;-61
2023/06/18 00:11:03;;;;;;;7.22;4.28;;;435.60;2355.20;;;;;;5072723;28;20032;-60
2023/06/18 00:13:29;;;;;;;9.15;4.65;;;435.60;2355.20;;;;;;5072123;28;20039;-60
2023/06/18 00:15:55;;;;;;;6.47;4.60;;;435.60;2355.20;;;;;;5072341;28;20031;-60
2023/06/18 00:18:20;;;;;;;9.90;3.83;;;435.60;2355.20;;;;;;5072397;28;20351;-60
2023/06/18 00:20:46;;;;;;;7.40;4.80;;;435.50;2355.20;;;;;;5072298;28;20484;-61
2023/06/18 00:23:12;;;;;;;8.45;4.47;;;435.50;2355.20;;;;;;5072153;28;20036;-60
2023/06/18 00:25:38;;;;;;;7.72;4.43;;;435.50;2355.20;;;;;;5072103;28;20040;-60
2023/06/18 00:28:03;;;;;;;5.97;4.40;;;435.60;2355.20;;;;;;5072509;28;20032;-60
2023/06/18 00:30:29;;;;;;;7.35;4.80;;;435.60;2355.20;;;;;;5072082;28;20043;-60
2023/06/18 00:32:55;;;;;;;6.15;4.50;;;435.60;2355.20;;;;;;5071897;28;20032;-61
2023/06/18 00:35:21;;;;;;;6.43;4.65;;;435.70;2355.20;;;;;;5071694;28;20052;-61
2023/06/18 00:37:47;;;;;;;8.32;4.20;;;435.70;2355.20;;;;;;5071491;28;20052;-61
2023/06/18 00:40:14;;;;;;;5.90;4.47;;;435.70;2355.20;;;;;;5072193;28;20028;-61
2023/06/18 00:42:41;;;;;;;7.00;4.68;;;435.80;2355.20;;;;;;5071760;28;20120;-62
2023/06/18 00:45:08;;;;;;;6.95;4.93;;;435.80;2355.20;;;;;;5071720;28;20112;-61
2023/06/18 00:47:42;;;;;;;6.22;4.78;;;435.80;2355.20;;;;;;5071947;28;20024;-61
2023/06/18 00:50:08;;;;;;;6.68;5.13;;;435.80;2355.20;;;;;;5071852;28;20043;-60
2023/06/18 00:52:36;;;;;;;5.63;4.45;;;435.80;2355.20;;;;;;5071402;28;20037;-61
2023/06/18 00:55:03;;;;;;;10.05;5.30;;;435.80;2355.20;;;;;;5071915;28;20059;-61
2023/06/18 00:57:31;;;;;;;9.00;4.75;;;435.80;2355.20;;;;;;5071389;28;20086;-59
2023/06/18 00:59:57;;;;;;;6.55;4.03;;;435.80;2355.20;;;;;;5071420;28;20471;-62
2023/06/18 01:02:26;;;;;;;5.47;4.10;;;435.80;2355.20;;;;;;5071678;28;20025;-61
2023/06/18 01:04:57;;;;;;;7.82;4.38;;;435.80;2355.20;;;;;;5071598;28;20024;-61
2023/06/18 01:07:24;;;;;;;7.55;4.82;;;435.70;2355.20;;;;;;5058767;28;20410;-61
2023/06/18 01:09:53;;;;;;;6.70;5.03;;;435.60;2355.20;;;;;;5071363;28;20461;-61
2023/06/18 01:12:27;;;;;;;6.75;5.30;;;435.60;2355.20;;;;;;5071270;28;20387;-61
2023/06/18 01:14:56;;;;;;;9.27;5.00;;;435.60;2355.20;;;;;;5071001;28;20031;-60
2023/06/18 01:17:23;;;;;;;9.82;5.05;;;435.50;2355.20;;;;;;5071312;28;20027;-61
2023/06/18 01:19:57;;;;;;;6.68;4.43;;;435.50;2355.20;;;;;;5071074;28;20016;-61
2023/06/18 01:22:37;;;;;;;8.52;4.82;;;435.40;2355.20;;;;;;5071112;28;20021;-61
2023/06/18 01:25:06;;;;;;;6.70;5.50;;;435.40;2355.20;;;;;;5071226;28;20394;-61
2023/06/18 01:27:40;;;;;;;8.13;4.68;;;435.30;2355.20;;;;;;5071167;28;20504;-61
2023/06/18 01:30:10;;;;;;;6.53;4.10;;;435.30;2355.20;;;;;;5071588;28;20460;-61
2023/06/18 01:32:37;;;;;;;9.30;4.38;;;435.30;2355.20;;;;;;5070895;28;20157;-62
2023/06/18 01:35:08;;;;;;;6.95;4.57;;;435.30;2355.20;;;;;;5071035;28;20086;-60
2023/06/18 01:37:48;;;;;;;8.30;5.00;;;435.30;2355.20;;;;;;5070664;28;20135;-60
2023/06/18 01:40:25;;;;;;;7.95;4.90;;;435.30;2355.20;;;;;;5071036;28;20122;-61
2023/06/18 01:43:13;;;;;;;7.32;4.65;;;435.20;2355.20;;;;;;5071029;28;20028;-61
2023/06/18 01:45:48;;;;;;;6.28;4.20;;;410.50;2355.20;;;;;;5008391;28;20095;-61
2023/06/18 01:48:16;;;;;;;6.35;4.57;;;410.50;2355.20;;;;;;5008556;28;20036;-62
2023/06/18 01:50:46;;;;;;;6.93;4.75;;;410.50;2355.20;;;;;;5008555;28;20101;-61
2023/06/18 01:53:15;;;;;;;7.68;5.00;;;410.50;2355.20;;;;;;5008473;28;20045;-61
2023/06/18 01:55:44;;;;;;;9.25;5.13;;;410.40;2355.20;;;;;;5008552;28;20101;-61
2023/06/18 01:58:13;;;;;;;7.22;4.60;;;410.40;2355.20;;;;;;5008488;28;20029;-62
2023/06/18 02:00:38;;;;;;;5.53;4.70;;;410.40;2355.20;;;;;;5008307;28;20014;-61
2023/06/18 02:03:04;;;;;;;7.78;5.03;;;410.30;2355.20;;;;;;5008363;28;20503;-61
2023/06/18 02:05:30;;;;;;;9.95;4.80;;;410.30;2355.20;;;;;;5007990;28;20073;-62
2023/06/18 02:07:56;;;;;;;7.97;5.18;;;410.20;2355.20;;;;;;5008168;28;20052;-62
2023/06/18 02:10:22;;;;;;;7.85;4.80;;;410.20;2355.20;;;;;;5008521;28;20552;-61
2023/06/18 02:12:48;;;;;;;7.50;4.28;;;410.20;2355.20;;;;;;4991318;28;20092;-62
2023/06/18 02:15:14;;;;;;;9.75;4.97;;;410.20;2355.20;;;;;;5007986;28;20121;-61
2023/06/18 02:17:40;;;;;;;6.32;4.60;;;410.10;2355.20;;;;;;5007905;28;20026;-62
2023/06/18 02:20:06;;;;;;;8.00;5.10;;;;;;;;;;4994985;28;20022;-61
2023/06/18 02:22:32;;;;;;;5.32;4.32;;;;;;;;;;5025226;28;20095;-61
2023/06/18 02:24:58;;;;;;;7.05;4.47;;;;;;;;;;5068471;28;20165;-62
2023/06/18 02:27:25;;;;;;;7.60;5.07;;;;;;;;;;5069358;28;20024;-61
2023/06/18 02:29:51;;;;;;;8.82;4.70;;;;;;;;;;5063822;28;20466;-61
2023/06/18 02:32:17;;;;;;;7.47;4.97;;;;;;;;;;5061896;28;20108;-62
2023/06/18 02:34:43;;;;;;;10.07;4.90;;;;;;;;;;5069761;28;20023;-62
2023/06/18 02:37:09;;;;;;;5.85;4.20;;;;;;;;;;5069313;28;20032;-62
2023/06/18 02:39:35;;;;;;;7.20;5.57;;;;;;;;;;5069646;28;20451;-62
2023/06/18 02:42:01;;;;;;;6.90;4.55;;;;;;;;;;5069825;28;20032;-60
2023/06/18 02:44:28;;;;;;;8.43;4.88;;;;;;;;;;5069276;28;20025;-62
2023/06/18 02:46:55;;;;;;;8.15;5.05;;;;;;;;;;5069674;28;20013;-61
2023/06/18 02:49:21;;;;;;;6.43;4.50;;;;;;;;;;5069483;28;20023;-61
2023/06/18 02:51:48;;;;;;;7.68;4.97;;;;;;;;;;5069328;28;20123;-61
2023/06/18 02:54:14;;;;;;;6.65;4.50;;;;;;;;;;5069545;28;20050;-63
2023/06/18 02:56:40;;;;;;;5.53;4.07;;;;;;;;;;5069281;28;20074;-62
2023/06/18 02:59:06;;;;;;;11.48;4.55;;;;;;;;;;5069308;28;20032;-61
2023/06/18 03:01:33;;;;;;;4.63;3.92;;;;;;;;;;5069228;28;20058;-60
2023/06/18 03:03:59;;;;;;;8.50;4.57;;;;;;;;;;5068455;28;20550;-61
2023/06/18 03:06:27;;;;;;;8.65;4.80;;;;;;;;;;5069368;28;20078;-60
2023/06/18 03:08:53;;;;;;;5.72;4.40;;;;;;;;;;5063355;28;20438;-61
2023/06/18 03:11:19;;;;;;;8.57;4.55;;;;;;;;;;5061452;28;20176;-61
2023/06/18 03:13:45;;;;;;;13.98;5.68;;;;;;;;;;5069244;28;20025;-61
2023/06/18 03:16:11;;;;;;;6.93;4.35;;;;;;;;;;5069857;28;20024;-61
2023/06/18 03:18:37;;;;;;;8.05;5.18;;;;;;;;;;5068416;28;20016;-60
2023/06/18 03:21:03;;;;;;;6.03;4.63;;;;;;;;;;5069516;28;20056;-61
2023/06/18 03:23:29;;;;;;;7.95;5.68;;;;;;;;;;5068490;28;20031;-61
2023/06/18 03:25:55;;;;;;;4.70;3.78;;;;;;;;;;5069144;28;20035;-61
2023/06/18 03:28:22;;;;;;;5.80;4.18;;;;;;;;;;5069131;28;20020;-61
2023/06/18 03:30:48;;;;;;;6.38;4.50;;;;;;;;;;5068813;28;20033;-61
2023/06/18 03:33:17;;;;;;;7.90;5.07;;;;;;;;;;5068352;28;20036;-60
2023/06/18 03:35:46;;;;;;;5.80;4.40;;;;;;;;;;5069020;28;20070;-61
2023/06/18 03:38:12;;;;;;;5.32;4.60;;;;;;;;;;5069856;28;20464;-61
2023/06/18 03:40:38;;;;;;;13.25;5.80;;;;;;;;;;5073136;28;20020;-60
2023/06/18 03:43:04;;;;;;;7.07;4.28;;;;;;;;;;5073026;28;20035;-60
2023/06/18 03:45:30;;;;;;;8.05;4.82;;;;;;;;;;5072888;28;20028;-59
2023/06/18 03:47:56;;;;;;;9.48;4.68;;;;;;;;;;5072388;28;20027;-62
2023/06/18 03:50:22;;;;;;;6.10;3.97;;;;;;;;;;5073105;28;20023;-61
2023/06/18 03:52:48;;;;;;;7.93;5.13;;;;;;;;;;5072340;28;20043;-62
2023/06/18 03:55:15;;;;;;;8.00;5.15;;;;;;;;;;5072948;28;20146;-61
2023/06/18 03:57:41;;;;;;;7.15;4.22;;;;;;;;;;5072786;28;20028;-62
2023/06/18 04:00:09;;;;;;;5.82;4.20;;;;;;;;;;5072910;28;20024;-62
2023/06/18 04:02:35;;;;;;;6.13;4.68;;;;;;;;;;5072495;28;20024;-61
2023/06/18 04:05:01;;;;;;;8.25;4.72;;;;;;;;;;5072259;28;20467;-62
2023/06/18 04:07:27;;;;;;;5.18;4.45;;;;;;;;;;5072280;28;20032;-61
2023/06/18 04:09:53;;;;;;;5.88;4.20;;;;;;;;;;5072512;28;20020;-61
2023/06/18 04:12:19;;;;;;;8.20;4.60;;;;;;;;;;5072522;28;20060;-61
2023/06/18 04:14:45;;;;;;;8.20;4.63;;;;;;;;;;5072382;28;20474;-61
2023/06/18 04:17:11;;;;;;;7.43;4.95;;;;;;;;;;5072437;28;20494;-61
2023/06/18 04:19:37;;;;;;;6.43;4.07;;;;;;;;;;5072079;28;20024;-62
2023/06/18 04:22:04;;;;;;;7.68;4.65;;;;;;;;;;5072567;28;20025;-61
2023/06/18 04:24:30;;;;;;;8.02;5.15;;;;;;;;;;5071974;28;20024;-61
2023/06/18 04:26:56;;;;;;;6.22;4.55;;;;;;;;;;5072692;28;20021;-61
2023/06/18 04:29:21;;;;;;;6.38;4.30;;;461.50;2380.80;;;;;;5071794;28;20425;-61
2023/06/18 04:31:47;;;;;;;6.82;4.90;;;486.70;2380.80;;;;;;5071956;28;20025;-60
2023/06/18 04:34:13;;;;;;;8.35;4.15;;;614.80;2432.00;;;;;;5071738;28;20403;-62
2023/06/18 04:36:40;;;;;;;7.95;5.20;;;666.00;2073.60;;;;;;5072214;28;20036;-62
2023/06/18 04:39:06;;;;;;;11.00;4.97;;;717.20;1894.40;;;;;;5072046;28;20091;-62
2023/06/18 04:41:31;;;;;;;7.10;5.00;;;742.90;1792.00;;;;;;5072261;28;20405;-62
2023/06/18 04:43:57;;;;;;;5.75;4.90;;;768.60;1689.60;;;;;;5071781;28;20029;-62
2023/06/18 04:46:23;;;;;;;7.25;5.22;;;794.40;1638.40;;;;;;5071941;28;20371;-61
2023/06/18 04:48:48;;;;;;;6.68;5.57;;;819.50;1612.80;;;;;;5071097;28;20051;-62
2023/06/18 04:51:14;;;;;;;6.05;5.45;;;844.80;1561.60;;;;;;5072290;28;20031;-62
2023/06/18 04:53:40;;;;;;;8.00;7.25;;;845.10;1536.00;;;;;;5071333;28;20544;-62
2023/06/18 04:56:06;;;;;;;6.32;5.38;;;845.60;1484.80;;;;;;5071830;28;20020;-63
2023/06/18 04:58:36;;;;;;;7.03;5.32;;;871.00;1433.60;;;;;;5071593;28;20020;-63
2023/06/18 05:01:03;;;;;;;7.20;5.85;;;871.20;1433.60;;;;;;5071644;28;20078;-62
2023/06/18 05:03:29;;;;;;;5.35;4.85;;;;;;;;;;5071170;28;20020;-63
2023/06/18 05:05:55;;;;;;;6.93;6.18;;;896.40;1382.40;;;;;;5071513;28;20047;-62
2023/06/18 05:08:21;;;;;;;6.57;5.65;;;922.40;1331.20;;;;;;5071336;28;20108;-63
2023/06/18 05:10:49;;;;;;;6.63;6.03;;;;;;;;;;5071126;28;20029;-65
2023/06/18 05:13:15;;;;;;;6.93;5.90;;;947.40;1305.60;;;;;;5071435;28;20115;-62
2023/06/18 05:15:40;;;;;;;6.88;6.28;;;972.90;1280.00;;;;;;5071204;28;20108;-62
2023/06/18 05:18:06;;;;;;;9.77;6.85;;;973.10;1280.00;;;;;;5071177;28;20444;-64
2023/06/18 05:20:32;;;;;;;8.85;6.55;;;;;;;;;;5070801;28;20070;-60
2023/06/18 05:22:58;;;;;;;7.32;6.72;;;973.70;1228.80;;;;;;5070755;28;20028;-59
2023/06/18 05:25:24;;;;;;;7.88;7.10;;;998.80;1228.80;;;;;;5070360;28;20111;-64
2023/06/18 05:27:50;;;;;;;7.88;7.18;;;1024.30;1177.60;;;;;;5070851;28;20024;-61
2023/06/18 05:30:15;;;;;;;7.95;7.35;;;1050.20;1177.60;;;;;;5071091;28;20074;-61
2023/06/18 05:32:41;;;;;;;10.13;7.50;;;1050.20;1152.00;;;;;;5070614;28;20057;-61
2023/06/18 05:35:07;;;;;;;8.77;7.88;;;1075.50;1152.00;;;;;;5070521;28;20040;-61
2023/06/18 05:37:33;;;;;;;8.10;7.43;;;1050.50;1126.40;;;;;;5071005;28;20394;-61
2023/06/18 05:39:58;;;;;;;8.25;7.45;;;1075.40;1126.40;;;;;;5070466;28;20058;-60
2023/06/18 05:42:24;;;;;;;8.77;8.07;;;1050.50;1126.40;;;;;;5071127;28;20039;-62
2023/06/18 05:44:50;;;;;;;8.45;7.63;;;1075.20;1126.40;;;;;;5070547;28;20021;-61
2023/06/18 05:47:17;;;;;;;9.35;8.13;;;1075.60;1100.80;;;;;;5070471;28;20044;-62
2023/06/18 05:49:42;;;;;;;9.88;8.98;;;1075.60;1100.80;;;;;;5070499;28;20363;-61
2023/06/18 05:52:08;;;;;;;8.75;8.05;;;1075.70;1100.80;;;;;;5070198;28;20028;-61
2023/06/18 05:54:34;;;;;;;10.57;9.00;;;1101.00;1100.80;;;;;;5070808;28;20021;-61
2023/06/18 05:57:00;;;;;;;9.10;8.50;;;1101.50;1075.20;;;;;;5070098;28;20029;-61
2023/06/18 05:59:26;;;;;;;9.43;8.73;;;1101.20;1075.20;;;;;;5070490;28;20028;-62
2023/06/18 06:01:51;;;;;;;9.50;8.77;;;1101.20;1075.20;;;;;;5069754;28;20064;-62
2023/06/18 06:04:19;;;;;;;9.98;9.13;;;1101.10;1100.80;;;;;;5069956;28;20502;-63
2023/06/18 06:06:45;;;;;;;9.35;8.55;;;1101.70;1049.60;;;;;;5070462;28;20025;-61
2023/06/18 06:09:10;;;;;;;9.70;8.90;;;1126.90;1049.60;;;;;;5070374;28;20128;-62
2023/06/18 06:11:37;;;;;;;9.75;9.05;;;1127.00;1049.60;;;;;;5069746;28;20039;-62
2023/06/18 06:14:03;;;;;;;10.18;9.48;;;1126.70;1075.20;;;;;;5069888;28;20090;-61
2023/06/18 06:16:28;;;;;;;8.88;8.15;;;1152.00;1024.00;;;;;;5069991;28;20032;-63
2023/06/18 06:18:54;;;;;;;9.65;8.82;;;1152.40;1024.00;;;;;;5069777;28;20539;-62
2023/06/18 06:21:20;;;;;;;10.07;9.27;;;1152.70;1024.00;;;;;;5069822;28;20095;-63
2023/06/18 06:23:46;;;;;;;10.38;9.55;;;1152.10;1024.00;;;;;;5069469;28;20025;-62
2023/06/18 06:26:12;;;;;;;10.50;9.57;;;1177.60;998.40;;;;;;5070257;28;20073;-62
2023/06/18 06:28:38;;;;;;;10.23;9.38;;;1152.50;1024.00;;;;;;5069490;28;20119;-61
2023/06/18 06:31:03;;;;;;;10.60;9.68;;;1152.40;1024.00;;;;;;5070083;28;20538;-62
2023/06/18 06:33:29;;;;;;;10.02;9.32;;;1177.60;998.40;;;;;;5069343;28;20033;-62
2023/06/18 06:35:55;;;;;;;10.88;10.07;;;1152.90;972.80;;;;;;5069489;28;20467;-61
2023/06/18 06:38:21;;;;;;;10.07;9.23;;;1177.60;998.40;;;;;;5069068;28;20044;-60
2023/06/18 06:40:46;;;;;;;9.90;9.10;;;1178.00;972.80;;;;;;5069408;28;20024;-63
2023/06/18 06:43:12;;;;;;;9.85;9.15;;;1177.60;998.40;;;;;;5069505;28;20510;-62
2023/06/18 06:45:38;;;;;;;9.40;8.70;;;1152.50;998.40;;;;;;5069486;28;20020;-62
2023/06/18 06:48:04;;;;;;;9.88;9.18;;;1203.40;998.40;;;;;;5069483;28;20059;-61
2023/06/18 06:50:30;;;;;;;9.98;8.90;;;1203.80;972.80;;;;;;5069454;28;20024;-62
2023/06/18 06:52:55;;;;;;;10.45;9.50;;;1177.70;998.40;;;;;;5068932;28;20040;-62
2023/06/18 06:55:21;;;;;;;11.48;10.30;;;1178.20;972.80;;;;;;5069493;28;20066;-60
2023/06/18 06:57:47;;;;;;;9.77;8.98;;;;;;;;;;5069380;28;20044;-62
2023/06/18 07:00:13;;;;;;;10.30;9.50;;;;;;;;;;5069438;28;20027;-62
2023/06/18 07:02:39;;;;;;;11.65;10.48;;;1203.90;947.20;;;;;;5068967;28;20027;-62
2023/06/18 07:05:07;;;;;;;11.50;10.70;;;1229.00;947.20;;;;;;5069155;28;20024;-62
2023/06/18 07:07:33;;;;;;;11.35;10.27;;;1203.80;947.20;;;;;;5069293;28;20067;-63
2023/06/18 07:09:58;;;;;;;10.85;10.15;;;1203.70;947.20;;;;;;5069237;28;20070;-63
2023/06/18 07:12:24;;;;;;;11.02;10.32;;;1203.80;947.20;;;;;;5069061;28;20069;-61
2023/06/18 07:14:50;;;;;;;10.65;9.85;;;1203.80;921.60;;;;;;5069293;28;20047;-62
2023/06/18 07:17:16;;;;;;;10.55;9.75;;;1228.90;947.20;;;;;;5069256;28;20077;-65
2023/06/18 07:19:41;;;;;;;11.02;10.10;;;1228.90;947.20;;;;;;5068989;28;20025;-62
2023/06/18 07:22:07;;;;;;;11.85;10.82;;;1254.50;947.20;;;;;;5068713;28;20146;-63
2023/06/18 07:24:33;;;;;;;10.43;9.50;;;1254.40;972.80;;;;;;5069018;28;20028;-64
2023/06/18 07:26:58;;;;;;;10.90;10.10;;;1255.00;921.60;;;;;;5069236;28;20470;-61
2023/06/18 07:29:25;;;;;;;11.13;10.43;;;1255.10;896.00;;;;;;5069262;28;20386;-64
2023/06/18 07:31:50;;;;;;;12.25;11.15;;;1254.60;921.60;;;;;;5068814;28;20087;-63
2023/06/18 07:34:16;;;;;;;12.23;11.27;;;1255.00;896.00;;;;;;5068593;28;20114;-65
2023/06/18 07:36:42;;;;;;;11.63;10.82;;;1280.00;896.00;;;;;;5069036;28;20095;-64
2023/06/18 07:39:08;;;;;;;11.55;10.75;;;1280.40;870.40;;;;;;5068507;28;20053;-66
2023/06/18 07:41:35;;;;;;;11.57;10.77;;;1255.10;896.00;;;;;;5069040;28;20036;-64
2023/06/18 07:44:01;;;;;;;13.18;12.38;;;1255.30;896.00;;;;;;5068568;28;20021;-66
2023/06/18 07:46:27;;;;;;;14.15;13.00;;;1254.80;921.60;;;;;;5068650;28;20437;-63
2023/06/18 07:48:52;;;;;;;11.98;10.27;;;1254.90;896.00;;;;;;5065644;28;20474;-66
2023/06/18 07:51:18;;;;;;;10.43;9.45;;;1229.50;921.60;;;;;;5066484;28;20028;-65
2023/06/18 07:53:44;;;;;;;11.10;10.30;;;1280.00;896.00;;;;;;5066164;28;20121;-67
2023/06/18 07:56:10;;;;;;;11.48;10.60;;;1254.80;921.60;;;;;;5066989;28;20028;-62
2023/06/18 07:58:36;;;;;;;11.10;10.30;;;1254.50;921.60;;;;;;5066626;28;20028;-62
2023/06/18 08:01:01;;;;;;;9.95;9.25;;;1254.50;921.60;;;;;;5066876;28;20107;-64
2023/06/18 08:03:27;;;;;;;10.15;9.45;;;1254.40;921.60;;;;;;5066646;28;20033;-64
2023/06/18 08:05:53;;;;;;;10.85;10.15;;;1203.60;947.20;;;;;;5067193;28;20032;-62
2023/06/18 08:08:19;;;;;;;11.45;10.65;;;1203.70;947.20;;;;;;5066782;28;20040;-63
2023/06/18 08:10:45;;;;;;;10.90;9.82;;;1203.60;947.20;;;;;;5067314;28;20031;-62
2023/06/18 08:13:11;;;;;;;10.02;9.38;;;1152.40;972.80;;;;;;5067005;28;20123;-62
2023/06/18 08:15:36;;;;;;;9.27;8.55;;;1050.40;1075.20;;;;;;5066653;28;20024;-62
2023/06/18 08:18:02;;;;;;;7.93;7.22;;;998.70;1100.80;;;;;;5067066;28;20530;-61
2023/06/18 08:20:28;;;;;;;7.65;6.95;;;948.00;1152.00;;;;;;5066999;28;20487;-61
2023/06/18 08:22:54;;;;;;;8.27;7.57;;;947.20;1203.20;;;;;;5066583;28;20841;-60
2023/06/18 08:25:20;;;;;;;7.13;6.43;;;896.40;1254.40;;;;;;5069456;28;20028;-61
2023/06/18 08:27:45;;;;;;;9.60;7.05;;;870.90;1331.20;;;;;;5069961;28;20032;-61
2023/06/18 08:30:11;;;;;;;8.23;7.43;;;870.80;1331.20;;;;;;5070609;28;20037;-61
2023/06/18 08:32:38;;;;;;;6.85;6.15;;;845.40;1382.40;;;;;;5070123;28;20486;-61
2023/06/18 08:35:05;;;;;;;7.38;6.57;;;845.00;1433.60;;;;;;5070280;28;20071;-60
2023/06/18 08:37:31;;;;;;;7.78;6.97;;;844.90;1433.60;;;;;;5070104;28;20044;-61
2023/06/18 08:39:56;;;;;;;9.38;6.95;;;820.10;1382.40;;;;;;5068186;28;20040;-61
2023/06/18 08:42:22;;;;;;;6.78;6.05;;;819.80;1382.40;;;;;;5044483;28;20037;-60
2023/06/18 08:44:50;;;;;;;7.43;6.72;;;819.50;1433.60;;;;;;5050073;28;20025;-60
2023/06/18 08:47:16;;;;;;;6.95;6.28;;;819.30;1433.60;;;;;;5061240;28;20166;-60
2023/06/18 08:49:44;;;;;;;7.55;6.07;;;819.20;1459.20;;;;;;5070193;28;20024;-65
2023/06/18 08:52:10;;;;;;;7.95;6.82;;;794.50;1459.20;;;;;;5069871;28;20036;-64
2023/06/18 08:54:38;;;;;;;8.40;5.72;;;794.10;1484.80;;;;;;5069454;28;20174;-66
2023/06/18 08:57:31;;;;;;;8.15;6.50;;;794.40;1459.20;;;;;;5070297;28;20035;-64
2023/06/18 08:59:59;;;;;;;6.93;6.20;;;794.20;1484.80;;;;;;5070231;28;20097;-67
2023/06/18 09:02:26;;;;;;;7.78;6.15;;;793.90;1459.20;;;;;;5070068;28;20597;-66
2023/06/18 09:04:54;;;;;;;6.53;5.93;;;794.00;1484.80;;;;;;5069855;28;20107;-66
2023/06/18 09:07:20;;;;;;;7.28;6.20;;;794.20;1536.00;;;;;;5069659;28;20037;-66
2023/06/18 09:09:47;;;;;;;9.90;7.13;;;;;;;;;;5069598;28;20174;-64
2023/06/18 09:12:13;;;;;;;8.18;5.97;;;;;;;;;;5069954;28;20106;-63
2023/06/18 09:14:39;;;;;;;6.97;6.28;;;768.60;1510.40;;;;;;5070156;28;20382;-65
2023/06/18 09:17:04;;;;;;;9.63;6.03;;;768.40;1510.40;;;;;;5069261;28;20481;-67
2023/06/18 09:19:32;;;;;;;7.38;5.63;;;768.20;1510.40;;;;;;5069095;28;20021;-64
2023/06/18 09:22:12;;;;;;;6.85;6.03;;;768.10;1484.80;;;;;;5070899;28;20029;-66
2023/06/18 09:24:37;;;;;;;9.82;7.38;;;768.40;1484.80;;;;;;5070968;28;20031;-64
2023/06/18 09:27:07;;;;;;;6.75;5.95;;;768.60;1510.40;;;;;;5071377;28;20021;-66
2023/06/18 09:29:34;;;;;;;7.15;6.45;;;768.60;1459.20;;;;;;5071350;28;20124;-64
2023/06/18 09:32:08;;;;;;;7.90;7.10;;;768.30;1459.20;;;;;;5070572;28;20479;-65
2023/06/18 09:34:35;;;;;;;7.47;6.78;;;768.50;1510.40;;;;;;5070879;28;20024;-66
2023/06/18 09:37:02;;;;;;;8.90;8.00;;;768.40;1561.60;;;;;;5070653;28;20028;-69
2023/06/18 09:39:28;;;;;;;8.25;7.03;;;768.10;1510.40;;;;;;5070053;28;20103;-64
2023/06/18 09:41:55;;;;;;;6.68;5.93;;;768.00;1459.20;;;;;;5070838;28;20029;-66
2023/06/18 09:44:22;;;;;;;9.85;7.93;;;743.30;1510.40;;;;;;5070549;28;20390;-63
2023/06/18 09:46:50;;;;;;;8.80;6.43;;;768.00;1536.00;;;;;;5070592;28;20066;-66
2023/06/18 09:49:18;;;;;;;7.88;6.05;;;768.00;1459.20;;;;;;5070276;28;20021;-66
2023/06/18 09:51:44;;;;;;;8.45;6.25;;;768.00;1484.80;;;;;;5070845;28;20021;-65
2023/06/18 09:54:11;;;;;;;8.77;6.30;;;;;;;;;;5070634;28;20025;-63
2023/06/18 09:56:38;;;;;;;9.18;6.35;;;743.00;1510.40;;;;;;5070619;28;20497;-64
2023/06/18 09:59:04;;;;;;;8.77;6.43;;;743.30;1510.40;;;;;;5070778;28;20016;-66
2023/06/18 10:01:45;;;;;;;6.95;6.15;;;;;;;;;;5070370;28;20028;-64
2023/06/18 10:04:11;;;;;;;6.38;5.72;;;;;;;;;;5070156;28;20051;-63
2023/06/18 10:06:40;;;;;;;6.78;5.65;;;743.20;1510.40;;;;;;5070088;28;20028;-65
2023/06/18 10:09:07;;;;;;;7.32;5.65;;;743.10;1510.40;;;;;;5070352;28;20455;-64
2023/06/18 10:11:34;;;;;;;6.80;5.88;;;742.90;1510.40;;;;;;5070358;28;20064;-64
2023/06/18 10:14:05;;;;;;;7.20;6.40;;;742.90;1561.60;;;;;;5070058;28;20040;-65
2023/06/18 10:16:32;;;;;;;9.07;6.88;;;743.00;1510.40;;;;;;5069550;28;20112;-63
2023/06/18 10:19:21;;;;;;;8.60;5.72;;;742.90;1484.80;;;;;;5070027;28;20478;-63
2023/06/18 10:21:50;;;;;;;5.68;5.18;;;;;;;;;;5070101;28;20386;-63
2023/06/18 10:24:18;;;;;;;5.97;5.38;;;;;;;;;;5069940;28;20024;-63
2023/06/18 10:26:44;;;;;;;7.88;5.53;;;;;;;;;;5070164;28;20028;-65
2023/06/18 10:29:11;;;;;;;6.82;6.13;;;742.80;1484.80;;;;;;5069691;28;20025;-63
2023/06/18 10:31:37;;;;;;;6.18;5.57;;;;;;;;;;5070095;28;20020;-64
2023/06/18 10:34:04;;;;;;;7.72;6.43;;;;;;;;;;5069793;28;20037;-66
2023/06/18 10:36:30;;;;;;;6.80;5.60;;;;;;;;;;5069958;28;20017;-66
2023/06/18 10:38:57;;;;;;;9.88;6.53;;;;;;;;;;5069674;28;20076;-65
2023/06/18 10:41:23;;;;;;;9.68;6.93;;;;;;;;;;5056648;28;20374;-64
2023/06/18 10:43:53;;;;;;;8.85;6.30;;;;;;;;;;5069123;28;20027;-65
2023/06/18 10:46:20;;;;;;;9.10;6.05;;;742.50;1536.00;;;;;;5056543;28;20024;-64
2023/06/18 10:49:16;;;;;;;8.77;5.70;;;742.50;1561.60;;;;;;5069205;28;20025;-63
2023/06/18 10:51:51;;;;;;;6.88;5.75;;;717.50;1459.20;;;;;;5069603;28;20532;-67
2023/06/18 10:54:30;;;;;;;7.03;6.07;;;717.70;1484.80;;;;;;5069385;28;20409;-64
2023/06/18 10:56:57;;;;;;;8.18;6.47;;;742.40;1536.00;;;;;;5069727;28;20029;-64
2023/06/18 10:59:33;;;;;;;8.88;6.18;;;;;;;;;;5069921;28;20034;-68
2023/06/18 11:02:00;;;;;;;8.30;6.13;;;;;;;;;;5069140;28;20031;-63
2023/06/18 11:04:30;;;;;;;7.05;6.25;;;717.50;1408.00;;;;;;5069189;28;20032;-65
2023/06/18 11:07:25;;;;;;;6.78;5.75;;;717.30;1433.60;;;;;;5068684;28;20029;-64
2023/06/18 11:09:57;;;;;;;9.45;5.90;;;717.50;1433.60;;;;;;5069330;28;20024;-64
2023/06/18 11:12:33;;;;;;;6.35;5.30;;;717.40;1459.20;;;;;;5069399;28;20030;-68
2023/06/18 11:15:06;;;;;;;7.70;5.72;;;717.40;1484.80;;;;;;5068893;28;20059;-64
2023/06/18 11:17:34;;;;;;;9.27;5.70;;;716.80;1484.80;;;;;;5069224;28;20134;-66
2023/06/18 11:20:02;;;;;;;7.25;5.20;;;716.90;1536.00;;;;;;5068882;28;20085;-64
2023/06/18 11:22:28;;;;;;;6.32;5.63;;;717.20;1484.80;;;;;;5068709;28;20028;-64
2023/06/18 11:24:57;;;;;;;6.82;5.57;;;717.40;1510.40;;;;;;5069232;28;20028;-63
2023/06/18 11:27:25;;;;;;;6.13;5.50;;;717.30;1459.20;;;;;;5069338;28;20511;-63
2023/06/18 11:30:00;;;;;;;8.10;6.22;;;717.50;1433.60;;;;;;5068884;28;20086;-64
2023/06/18 11:32:27;;;;;;;6.85;6.13;;;742.40;1459.20;;;;;;5068812;28;20032;-66
2023/06/18 11:34:56;;;;;;;7.57;5.50;;;742.50;1459.20;;;;;;5069222;28;20031;-64
2023/06/18 11:37:26;;;;;;;6.85;5.45;;;742.60;1459.20;;;;;;5050542;28;20064;-66
2023/06/18 11:39:51;;;;;;;6.13;5.53;;;742.40;1484.80;;;;;;5068896;28;20024;-66
2023/06/18 11:42:21;;;;;;;6.03;4.82;;;742.40;1459.20;;;;;;5068860;28;20481;-64
2023/06/18 11:44:47;;;;;;;7.15;5.80;;;717.70;1433.60;;;;;;5068381;28;20020;-65
2023/06/18 11:47:12;;;;;;;7.13;5.30;;;742.40;1510.40;;;;;;5068848;28;20024;-65
2023/06/18 11:49:42;;;;;;;7.43;6.60;;;742.40;1484.80;;;;;;5068874;28;20113;-66
2023/06/18 11:52:08;;;;;;;9.55;5.35;;;742.40;1536.00;;;;;;5068589;28;20086;-64
2023/06/18 11:54:40;;;;;;;8.10;5.97;;;717.50;1459.20;;;;;;5068937;28;20382;-66
2023/06/18 11:57:09;;;;;;;9.07;7.28;;;717.60;1484.80;;;;;;5068762;28;20024;-66
2023/06/18 11:59:35;;;;;;;6.55;5.00;;;717.70;1484.80;;;;;;5071088;28;20391;-64
2023/06/18 12:02:12;;;;;;;10.35;5.90;;;717.60;1510.40;;;;;;5072667;28;20017;-65
2023/06/18 12:04:41;;;;;;;6.68;6.03;;;717.70;1510.40;;;;;;5072533;28;20028;-65
2023/06/18 12:07:07;;;;;;;8.40;6.40;;;717.70;1536.00;;;;;;5072366;28;20479;-64
2023/06/18 12:09:37;;;;;;;6.80;5.30;;;742.40;1536.00;;;;;;5072751;28;20039;-66
2023/06/18 12:12:34;;;;;;;8.32;5.38;;;742.40;1459.20;;;;;;5072285;28;20039;-65
2023/06/18 12:15:22;;;;;;;7.55;6.75;;;742.50;1484.80;;;;;;5070689;28;20029;-65
2023/06/18 12:18:04;;;;;;;8.50;6.47;;;742.60;1510.40;;;;;;5070843;28;20486;-66
2023/06/18 12:20:30;;;;;;;12.77;6.35;;;742.60;1484.80;;;;;;5059377;28;20068;-65
2023/06/18 12:22:56;;;;;;;9.38;6.40;;;742.80;1459.20;;;;;;5070252;28;20505;-65
2023/06/18 12:25:26;;;;;;;6.20;5.45;;;742.90;1459.20;;;;;;5070888;28;20038;-64
2023/06/18 12:27:53;;;;;;;8.07;5.88;;;743.00;1459.20;;;;;;5069981;28;20075;-65
2023/06/18 12:30:27;;;;;;;7.85;6.70;;;743.00;1510.40;;;;;;5070625;28;20556;-65
2023/06/18 12:33:03;;;;;;;8.02;6.20;;;742.90;1484.80;;;;;;5070798;28;20102;-64
2023/06/18 12:35:30;;;;;;;7.18;6.20;;;742.60;1484.80;;;;;;5070425;28;20083;-64
2023/06/18 12:38:00;;;;;;;10.18;6.90;;;;;;;;;;5070078;28;20128;-67
2023/06/18 12:40:26;;;;;;;8.25;6.40;;;717.50;1459.20;;;;;;5070524;28;20090;-64
2023/06/18 12:42:52;;;;;;;6.80;5.97;;;692.10;1510.40;;;;;;5070209;28;20483;-64
2023/06/18 12:45:26;;;;;;;7.95;6.32;;;717.00;1484.80;;;;;;5070204;28;20021;-65
2023/06/18 12:47:52;;;;;;;6.55;5.53;;;717.10;1561.60;;;;;;5070236;28;20025;-65